Time;durP1;ratioP1;P1;durP2;ratioP2;P2;SDS_P1;SDS_P2;PMS_P1;PMS_P2;Temp;Humidity;BMP_temperature;BMP_pressure;BME280_temperature;BME280_humidity;BME280_pressure;Samples;Min_cycle;Max_cycle;Signal;HPM_P1;HPM_P2
2021/12/06 00:00:00;;;;;;;11.67;7.57;;;;;;;;;;4964911;28;20542;-89
2021/12/06 00:03:07;;;;;;;9.80;7.30;;;;;;;;;;4942250;29;20591;-88
2021/12/06 00:06:16;;;;;;;10.97;7.20;;;;;;;;;;4933832;29;20646;-88
2021/12/06 00:09:23;;;;;;;12.03;6.77;;;;;;;;;;4934154;29;20552;-89
2021/12/06 00:12:27;;;;;;;11.70;7.33;;;;;;;;;;4934190;29;20916;-88
2021/12/06 00:15:33;;;;;;;10.63;6.97;;;;;;;;;;4934047;29;20611;-88
2021/12/06 00:18:37;;;;;;;10.67;6.67;;;;;;;;;;4934192;29;20544;-87
2021/12/06 00:21:41;;;;;;;12.23;7.20;;;;;;;;;;4944798;29;20929;-88
2021/12/06 00:24:45;;;;;;;11.73;7.33;;;;;;;;;;4944743;29;20548;-88
2021/12/06 00:27:49;;;;;;;11.80;7.30;;;;;;;;;;4960543;28;20634;-88
2021/12/06 00:30:55;;;;;;;18.47;10.07;;;;;;;;;;4952993;28;20554;-88
2021/12/06 00:34:05;;;;;;;17.70;10.40;;;;;;;;;;4935179;28;20622;-88
2021/12/06 00:37:21;;;;;;;16.57;10.50;;;;;;;;;;4915705;29;20631;-88
2021/12/06 00:40:30;;;;;;;19.77;10.80;;;;;;;;;;4947231;28;20670;-88
2021/12/06 00:43:35;;;;;;;31.90;12.47;;;;;;;;;;4959790;28;20594;-89
2021/12/06 00:46:39;;;;;;;61.27;13.10;;;;;;;;;;4944393;29;20681;-88
2021/12/06 00:49:47;;;;;;;46.57;12.13;;;;;;;;;;4944266;29;20571;-89
2021/12/06 00:52:52;;;;;;;23.30;12.00;;;;;;;;;;4933443;29;20547;-88
2021/12/06 00:55:57;;;;;;;19.83;11.33;;;;;;;;;;4939108;28;21165;-88
2021/12/06 00:59:01;;;;;;;21.07;12.37;;;;;;;;;;4974378;28;20935;-88
2021/12/06 01:02:07;;;;;;;18.60;11.13;;;;;;;;;;4952801;28;21105;-88
2021/12/06 01:05:12;;;;;;;17.57;10.90;;;;;;;;;;4963578;28;20613;-88
2021/12/06 01:08:18;;;;;;;18.33;10.83;;;;;;;;;;4952022;28;20645;-88
2021/12/06 01:11:22;;;;;;;20.83;11.70;;;;;;;;;;4952552;28;20613;-88
2021/12/06 01:14:26;;;;;;;29.53;13.33;;;;;;;;;;4941712;28;20555;-88
2021/12/06 01:17:31;;;;;;;19.63;11.83;;;;;;;;;;4943317;29;20642;-89
2021/12/06 01:20:48;;;;;;;20.63;10.97;;;;;;;;;;4945822;29;20933;-89
2021/12/06 01:23:58;;;;;;;23.33;11.87;;;;;;;;;;4944232;29;20548;-89
2021/12/06 01:30:25;;;;;;;22.17;12.17;;;;;;;;;;4943833;29;20618;-89
2021/12/06 01:40:20;;;;;;;18.77;11.77;;;;;;;;;;4943203;29;20604;-87
2021/12/06 01:43:26;;;;;;;18.27;11.63;;;;;;;;;;4938427;29;20599;-88
2021/12/06 01:46:32;;;;;;;18.33;11.50;;;;;;;;;;4944306;29;20749;-88
2021/12/06 01:49:39;;;;;;;22.47;12.30;;;;;;;;;;4947463;29;20626;-88
2021/12/06 01:52:47;;;;;;;17.90;11.60;;;;;;;;;;4936140;29;21217;-88
2021/12/06 01:55:51;;;;;;;20.77;11.43;;;;;;;;;;4936551;29;20547;-88
2021/12/06 01:58:56;;;;;;;19.73;11.80;;;;;;;;;;4925667;29;20599;-88
2021/12/06 02:02:00;;;;;;;21.83;12.50;;;;;;;;;;4947781;29;20602;-88
2021/12/06 02:05:05;;;;;;;18.13;11.77;;;;;;;;;;4946868;29;20606;-88
2021/12/06 02:08:10;;;;;;;29.27;12.33;;;;;;;;;;4947245;29;20630;-88
2021/12/06 02:11:15;;;;;;;30.33;13.43;;;;;;;;;;4925682;29;20587;-88
2021/12/06 02:17:29;;;;;;;20.43;13.00;;;;;;;;;;4936214;29;20627;-88
2021/12/06 02:20:42;;;;;;;26.67;13.87;;;;;;;;;;4926015;29;20587;-88
2021/12/06 02:23:47;;;;;;;23.50;13.40;;;;;;;;;;4948748;29;20590;-88
2021/12/06 02:26:53;;;;;;;32.43;14.80;;;;;;;;;;4930410;29;20675;-88
2021/12/06 02:30:00;;;;;;;25.03;14.23;;;;;;;;;;4936125;29;20623;-88
2021/12/06 02:33:05;;;;;;;22.57;12.63;;;;;;;;;;4935752;29;20599;-88
2021/12/06 02:36:10;;;;;;;25.80;14.07;;;;;;;;;;4936096;29;20598;-87
2021/12/06 02:39:22;;;;;;;23.40;13.73;;;;;;;;;;4920097;29;20583;-88
2021/12/06 02:42:26;;;;;;;22.90;13.10;;;;;;;;;;4935500;29;21183;-88
2021/12/06 02:45:31;;;;;;;23.40;13.30;;;;;;;;;;4927351;29;20617;-88
2021/12/06 02:48:35;;;;;;;25.00;13.57;;;;;;;;;;4935113;29;20631;-88
2021/12/06 02:51:40;;;;;;;56.67;13.80;;;;;;;;;;4946106;29;20627;-88
2021/12/06 02:54:49;;;;;;;42.03;14.33;;;;;;;;;;4930971;29;20960;-88
2021/12/06 02:57:56;;;;;;;25.97;12.20;;;;;;;;;;4979831;28;20669;-87
2021/12/06 03:01:31;;;;;;;26.60;13.93;;;;;;;;;;5010632;28;20609;-89
2021/12/06 03:04:37;;;;;;;32.80;14.53;;;;;;;;;;4998812;28;21179;-88
2021/12/06 03:07:46;;;;;;;26.03;14.07;;;;;;;;;;4984395;28;21042;-89
2021/12/06 03:10:51;;;;;;;29.47;14.03;;;;;;;;;;4995743;28;20608;-88
2021/12/06 03:13:55;;;;;;;38.47;13.93;;;;;;;;;;4995371;28;20604;-88
2021/12/06 03:17:02;;;;;;;36.13;14.13;;;;;;;;;;4974874;28;20649;-88
2021/12/06 03:20:09;;;;;;;40.20;13.70;;;;;;;;;;4994869;28;20593;-88
2021/12/06 03:23:15;;;;;;;25.60;13.30;;;;;;;;;;4965436;28;20578;-88
2021/12/06 03:26:19;;;;;;;24.40;11.63;;;;;;;;;;4953965;28;20637;-88
2021/12/06 03:29:25;;;;;;;29.83;12.13;;;;;;;;;;4976197;28;20598;-88
2021/12/06 03:32:30;;;;;;;26.10;13.50;;;;;;;;;;4954330;28;20598;-88
2021/12/06 03:35:35;;;;;;;22.20;12.70;;;;;;;;;;4966848;28;20589;-88
2021/12/06 03:38:40;;;;;;;48.83;13.50;;;;;;;;;;4980626;28;20586;-88
2021/12/06 03:41:44;;;;;;;29.53;13.60;;;;;;;;;;4972940;28;20603;-88
2021/12/06 03:44:49;;;;;;;43.40;14.03;;;;;;;;;;4941420;28;20594;-88
2021/12/06 03:47:53;;;;;;;30.17;12.47;;;;;;;;;;4964143;28;20657;-88
2021/12/06 03:50:59;;;;;;;37.87;12.87;;;;;;;;;;4965317;28;21110;-88
2021/12/06 03:54:04;;;;;;;25.23;12.33;;;;;;;;;;4964597;28;20535;-88
2021/12/06 03:57:08;;;;;;;39.20;13.57;;;;;;;;;;4975472;28;20649;-88
2021/12/06 04:00:13;;;;;;;28.07;12.50;;;;;;;;;;5024046;23;20684;-85
2021/12/06 04:03:19;;;;;;;48.87;12.53;;;;;;;;;;5016187;28;20631;-85
2021/12/06 04:06:23;;;;;;;53.10;13.47;;;;;;;;;;5001939;28;20632;-85
2021/12/06 04:09:30;;;;;;;103.73;14.10;;;;;;;;;;5015256;28;20639;-85
2021/12/06 04:12:36;;;;;;;29.73;12.97;;;;;;;;;;5004506;28;20553;-85
2021/12/06 04:15:42;;;;;;;51.23;13.77;;;;;;;;;;4992764;28;20604;-85
2021/12/06 04:18:49;;;;;;;70.17;13.33;;;;;;;;;;4974587;28;20640;-85
2021/12/06 04:21:54;;;;;;;45.07;13.37;;;;;;;;;;4973849;28;20538;-85
2021/12/06 04:25:01;;;;;;;39.37;15.67;;;;;;;;;;4984974;28;20550;-85
2021/12/06 04:28:07;;;;;;;28.67;13.80;;;;;;;;;;4973462;28;20653;-85
2021/12/06 04:31:11;;;;;;;33.37;15.20;;;;;;;;;;4973726;28;20538;-85
2021/12/06 04:34:16;;;;;;;31.20;13.77;;;;;;;;;;4984400;28;20538;-85
2021/12/06 04:37:21;;;;;;;34.83;14.57;;;;;;;;;;4984497;28;20534;-84
2021/12/06 04:40:27;;;;;;;34.47;14.30;;;;;;;;;;4984403;28;21225;-85
2021/12/06 04:43:32;;;;;;;118.17;15.57;;;;;;;;;;4973734;28;20538;-85
2021/12/06 04:46:37;;;;;;;56.17;14.50;;;;;;;;;;4974720;28;20613;-85
2021/12/06 04:49:41;;;;;;;56.20;14.30;;;;;;;;;;4966738;28;20634;-84
2021/12/06 04:52:46;;;;;;;36.97;14.60;;;;;;;;;;4958484;28;20621;-84
2021/12/06 04:56:04;;;;;;;82.63;16.03;;;;;;;;;;4967092;28;20640;-84
2021/12/06 04:59:24;;;;;;;55.67;14.03;;;;;;;;;;4980709;28;20660;-85
2021/12/06 05:02:36;;;;;;;98.97;15.90;;;;;;;;;;4981723;28;20545;-85
2021/12/06 05:05:49;;;;;;;24.47;12.10;;;;;;;;;;4973696;28;21098;-85
2021/12/06 05:09:02;;;;;;;44.23;13.33;;;;;;;;;;4984408;28;20617;-85
2021/12/06 05:12:10;;;;;;;35.37;13.63;;;;;;;;;;4979036;28;20546;-85
2021/12/06 05:15:14;;;;;;;35.67;13.07;;;;;;;;;;4990243;28;20542;-85
2021/12/06 05:18:19;;;;;;;66.17;15.63;;;;;;;;;;5001323;28;20600;-85
2021/12/06 05:21:25;;;;;;;28.63;12.53;;;;;;;;;;4998981;28;20549;-85
2021/12/06 05:24:30;;;;;;;33.30;13.83;;;;;;;;;;5000857;28;21089;-85
2021/12/06 05:27:34;;;;;;;34.37;13.70;;;;;;;;;;5004630;28;20596;-85
2021/12/06 05:30:42;;;;;;;49.60;14.03;;;;;;;;;;4993850;28;20549;-85
2021/12/06 05:33:57;;;;;;;60.37;14.13;;;;;;;;;;4992986;28;20540;-85
2021/12/06 05:37:03;;;;;;;32.83;13.53;;;;;;;;;;4996262;28;20541;-85
2021/12/06 05:40:10;;;;;;;30.37;12.67;;;;;;;;;;4999137;28;20639;-85
2021/12/06 05:43:15;;;;;;;71.17;12.70;;;;;;;;;;4997462;28;20568;-85
2021/12/06 05:46:19;;;;;;;27.83;11.60;;;;;;;;;;4996139;28;20553;-85
2021/12/06 05:49:23;;;;;;;29.23;12.10;;;;;;;;;;4998084;28;20608;-85
2021/12/06 05:52:27;;;;;;;37.17;11.87;;;;;;;;;;4998726;28;20612;-85
2021/12/06 05:55:32;;;;;;;39.37;11.03;;;;;;;;;;4985305;28;20604;-85
2021/12/06 05:58:36;;;;;;;33.30;13.30;;;;;;;;;;5008296;28;20663;-85
2021/12/06 06:01:41;;;;;;;29.57;12.23;;;;;;;;;;5009884;28;20541;-84
2021/12/06 06:04:45;;;;;;;68.23;12.43;;;;;;;;;;4997827;28;20941;-85
2021/12/06 06:07:49;;;;;;;30.83;11.77;;;;;;;;;;5003438;28;20982;-85
2021/12/06 06:10:53;;;;;;;43.50;11.47;;;;;;;;;;5001981;28;21188;-85
2021/12/06 06:13:57;;;;;;;25.87;11.73;;;;;;;;;;4990076;28;20592;-85
2021/12/06 06:17:10;;;;;;;31.40;12.90;;;;;;;;;;4991899;28;20964;-85
2021/12/06 06:20:42;;;;;;;26.53;11.93;;;;;;;;;;4991191;28;20632;-84
2021/12/06 06:23:47;;;;;;;30.23;12.30;;;;;;;;;;4992022;28;20537;-88
2021/12/06 06:26:52;;;;;;;27.90;12.63;;;;;;;;;;4980257;28;20965;-85
2021/12/06 06:29:56;;;;;;;19.60;10.10;;;;;;;;;;5002133;28;20969;-85
2021/12/06 06:33:00;;;;;;;25.37;11.77;;;;;;;;;;4993087;28;20910;-85
2021/12/06 06:36:04;;;;;;;23.83;11.53;;;;;;;;;;4982789;28;20580;-84
2021/12/06 06:39:10;;;;;;;22.10;11.23;;;;;;;;;;5003993;28;21020;-84
2021/12/06 06:42:14;;;;;;;19.00;10.00;;;;;;;;;;5005098;28;20592;-84
2021/12/06 06:45:21;;;;;;;20.70;11.80;;;;;;;;;;4996589;28;20595;-84
2021/12/06 06:48:25;;;;;;;20.27;10.93;;;;;;;;;;5016089;28;20604;-84
2021/12/06 06:51:29;;;;;;;25.13;11.73;;;;;;;;;;5016349;28;20553;-84
2021/12/06 06:54:33;;;;;;;24.50;11.93;;;;;;;;;;4992851;28;20584;-84
2021/12/06 06:57:39;;;;;;;25.17;12.93;;;;;;;;;;5004255;28;20584;-84
2021/12/06 07:00:43;;;;;;;23.30;12.03;;;;;;;;;;5001824;28;20613;-84
2021/12/06 07:03:50;;;;;;;23.47;11.23;;;;;;;;;;4993846;28;20595;-84
2021/12/06 07:06:56;;;;;;;22.43;11.90;;;;;;;;;;5004430;28;20620;-87
2021/12/06 07:10:01;;;;;;;20.57;12.23;;;;;;;;;;4986388;28;20648;-84
2021/12/06 07:13:09;;;;;;;23.83;12.20;;;;;;;;;;4993927;28;20599;-84
2021/12/06 07:16:15;;;;;;;19.47;10.30;;;;;;;;;;4993396;28;20596;-83
2021/12/06 07:19:19;;;;;;;16.93;10.17;;;;;;;;;;4992543;28;20639;-83
2021/12/06 07:22:23;;;;;;;18.40;10.40;;;;;;;;;;4992986;28;20596;-83
2021/12/06 07:25:29;;;;;;;19.60;9.87;;;;;;;;;;4985044;28;20546;-84
2021/12/06 07:28:33;;;;;;;22.20;11.70;;;;;;;;;;4993130;28;20655;-84
2021/12/06 07:31:38;;;;;;;23.07;12.20;;;;;;;;;;4993805;28;20545;-84
2021/12/06 07:34:42;;;;;;;25.20;12.27;;;;;;;;;;4998487;28;20599;-84
2021/12/06 07:37:46;;;;;;;20.73;10.70;;;;;;;;;;5004789;28;20537;-84
2021/12/06 07:40:50;;;;;;;24.20;12.43;;;;;;;;;;5014478;28;20593;-83
2021/12/06 07:43:56;;;;;;;23.60;12.33;;;;;;;;;;4991289;28;20541;-84
2021/12/06 07:47:00;;;;;;;23.83;11.67;;;;;;;;;;4983866;28;20598;-84
2021/12/06 07:50:12;;;;;;;24.20;11.33;;;;;;;;;;4980697;28;20646;-83
2021/12/06 07:53:16;;;;;;;26.43;14.70;;;;;;;;;;4992475;28;20627;-84
2021/12/06 07:56:21;;;;;;;31.40;16.80;;;;;;;;;;5003651;28;20588;-83
2021/12/06 07:59:25;;;;;;;26.27;14.97;;;;;;;;;;5003249;28;20632;-84
2021/12/06 08:02:30;;;;;;;29.13;14.90;;;;;;;;;;4973238;28;20588;-84
2021/12/06 08:05:37;;;;;;;28.20;13.87;;;;;;;;;;4987942;28;21097;-83
2021/12/06 08:08:43;;;;;;;27.47;12.50;;;;;;;;;;4988061;28;20680;-83
2021/12/06 08:11:48;;;;;;;27.70;12.93;;;;;;;;;;4988378;28;20604;-83
2021/12/06 08:14:52;;;;;;;28.03;14.63;;;;;;;;;;4977072;28;20624;-83
2021/12/06 08:17:56;;;;;;;39.20;19.33;;;;;;;;;;4987782;28;20615;-83
2021/12/06 08:21:01;;;;;;;34.97;17.93;;;;;;;;;;4979430;28;20621;-83
2021/12/06 08:24:07;;;;;;;40.33;19.93;;;;;;;;;;4994144;28;20631;-83
2021/12/06 08:27:11;;;;;;;36.47;17.93;;;;;;;;;;4988350;28;20611;-83
2021/12/06 08:30:21;;;;;;;38.17;16.03;;;;;;;;;;5002892;28;20640;-84
2021/12/06 08:33:26;;;;;;;38.40;16.60;;;;;;;;;;4991809;28;20565;-84
2021/12/06 08:36:30;;;;;;;34.13;16.63;;;;;;;;;;4983358;28;20541;-84
2021/12/06 08:39:35;;;;;;;35.13;17.17;;;;;;;;;;4982474;28;21232;-84
2021/12/06 08:42:41;;;;;;;59.67;22.17;;;;;;;;;;4971734;28;20563;-84
2021/12/06 08:46:11;;;;;;;36.57;16.57;;;;;;;;;;4989434;28;20589;-84
2021/12/06 08:49:15;;;;;;;42.67;17.40;;;;;;;;;;4979649;28;20668;-84
2021/12/06 08:52:19;;;;;;;42.77;17.37;;;;;;;;;;4990928;28;20621;-84
2021/12/06 08:55:24;;;;;;;37.73;18.33;;;;;;;;;;4979708;28;20596;-84
2021/12/06 08:58:28;;;;;;;42.43;18.33;;;;;;;;;;4991086;28;20639;-84
2021/12/06 09:01:34;;;;;;;41.63;17.67;;;;;;;;;;5003306;28;20552;-84
2021/12/06 09:04:40;;;;;;;39.17;16.53;;;;;;;;;;5000274;28;20596;-84
2021/12/06 09:07:44;;;;;;;44.17;19.83;;;;;;;;;;4982531;28;20530;-84
2021/12/06 09:10:52;;;;;;;48.07;20.57;;;;;;;;;;4982788;28;20542;-84
2021/12/06 09:13:56;;;;;;;49.43;21.37;;;;;;;;;;4990787;28;21172;-84
2021/12/06 09:17:00;;;;;;;48.37;20.03;;;;;;;;;;5002180;28;20541;-84
2021/12/06 09:20:08;;;;;;;45.17;20.47;;;;;;;;;;5002112;28;21224;-84
2021/12/06 09:23:13;;;;;;;50.67;20.47;;;;;;;;;;5001358;28;20589;-85
2021/12/06 09:26:17;;;;;;;44.73;20.00;;;;;;;;;;4988550;28;20568;-84
2021/12/06 09:29:24;;;;;;;46.30;20.47;;;;;;;;;;4975487;28;20671;-85
2021/12/06 09:32:29;;;;;;;39.33;19.27;;;;;;;;;;4986379;28;20628;-84
2021/12/06 09:35:36;;;;;;;37.00;16.73;;;;;;;;;;4985999;28;20600;-84
2021/12/06 09:38:42;;;;;;;36.00;18.10;;;;;;;;;;4986143;28;20654;-85
2021/12/06 09:41:46;;;;;;;34.93;18.03;;;;;;;;;;4985730;28;20597;-85
2021/12/06 09:44:51;;;;;;;37.13;17.77;;;;;;;;;;4986353;28;20580;-85
2021/12/06 09:47:56;;;;;;;35.40;18.13;;;;;;;;;;4986593;28;21148;-85
2021/12/06 09:51:05;;;;;;;32.63;16.80;;;;;;;;;;4986171;28;20584;-84
2021/12/06 09:54:11;;;;;;;33.70;17.23;;;;;;;;;;4986526;28;20592;-85
2021/12/06 09:57:15;;;;;;;41.27;21.67;;;;;;;;;;4985523;28;20596;-85
2021/12/06 10:00:23;;;;;;;33.13;18.03;;;;;;;;;;4974962;28;21043;-85
2021/12/06 10:03:29;;;;;;;31.43;17.23;;;;;;;;;;4997215;28;20918;-85
2021/12/06 10:06:34;;;;;;;32.17;17.80;;;;;;;;;;4985947;28;20677;-85
2021/12/06 10:09:39;;;;;;;31.33;18.03;;;;;;;;;;5000978;28;20743;-85
2021/12/06 10:12:48;;;;;;;30.73;18.47;;;;;;;;;;4990494;28;20568;-85
2021/12/06 10:15:53;;;;;;;31.17;17.77;;;;;;;;;;4989754;28;20562;-85
2021/12/06 10:18:57;;;;;;;32.03;17.53;;;;;;;;;;4981427;28;20648;-85
2021/12/06 10:22:01;;;;;;;30.90;17.30;;;;;;;;;;4970701;28;20605;-85
2021/12/06 10:25:06;;;;;;;31.13;18.07;;;;;;;;;;4986301;28;21156;-85
2021/12/06 10:28:12;;;;;;;28.60;17.87;;;;;;;;;;4984740;28;20629;-85
2021/12/06 10:31:43;;;;;;;27.53;17.27;;;;;;;;;;5051328;23;20683;-89
2021/12/06 10:34:51;;;;;;;34.53;21.20;;;;;;;;;;5002459;28;20604;-89
2021/12/06 10:37:57;;;;;;;33.20;18.63;;;;;;;;;;4993549;28;20608;-89
2021/12/06 10:41:07;;;;;;;29.67;17.53;;;;;;;;;;4991068;28;21247;-89
2021/12/06 10:44:12;;;;;;;31.33;17.73;;;;;;;;;;4988119;28;20613;-89
2021/12/06 10:47:17;;;;;;;31.93;18.23;;;;;;;;;;5012434;28;20589;-88
2021/12/06 10:50:21;;;;;;;33.33;19.33;;;;;;;;;;4985488;28;20664;-89
2021/12/06 10:53:42;;;;;;;31.90;18.37;;;;;;;;;;4984894;28;20605;-89
2021/12/06 10:56:51;;;;;;;28.33;17.67;;;;;;;;;;4993396;28;20601;-88
2021/12/06 10:59:55;;;;;;;29.73;18.07;;;;;;;;;;4991373;28;20209;-87
2021/12/06 11:03:01;;;;;;;30.43;16.63;;;;;;;;;;4997059;28;20597;-88
2021/12/06 11:06:10;;;;;;;24.10;15.07;;;;;;;;;;5004453;28;20170;-88
2021/12/06 11:09:18;;;;;;;26.63;16.90;;;;;;;;;;5019869;28;20206;-87
2021/12/06 11:12:24;;;;;;;29.90;18.27;;;;;;;;;;5010366;28;20185;-90
2021/12/06 11:15:28;;;;;;;23.57;15.03;;;;;;;;;;4992864;28;20627;-89
2021/12/06 11:18:40;;;;;;;25.27;15.53;;;;;;;;;;4995106;28;20202;-89
2021/12/06 11:21:50;;;;;;;22.37;14.97;;;;;;;;;;5021709;28;20189;-88
2021/12/06 11:24:55;;;;;;;23.67;15.97;;;;;;;;;;5015335;28;20178;-89
2021/12/06 11:28:00;;;;;;;25.23;15.63;;;;;;;;;;5014803;28;20193;-89
2021/12/06 11:31:06;;;;;;;23.07;14.63;;;;;;;;;;5003084;28;20229;-86
2021/12/06 11:34:10;;;;;;;20.00;13.30;;;;;;;;;;4997580;28;20647;-89
2021/12/06 11:37:18;;;;;;;25.87;16.03;;;;;;;;;;5014722;28;20209;-89
2021/12/06 11:40:33;;;;;;;25.23;14.53;;;;;;;;;;5006098;28;20214;-89
2021/12/06 11:48:27;;;;;;;20.17;13.50;;;;;;;;;;4995460;28;20178;-89
2021/12/06 11:51:31;;;;;;;20.23;13.83;;;;;;;;;;5004072;28;20226;-87
2021/12/06 11:54:42;;;;;;;18.97;13.07;;;;;;;;;;4998207;28;20213;-87
2021/12/06 11:57:54;;;;;;;17.97;12.07;;;;;;;;;;4999675;28;20181;-88
2021/12/06 12:01:07;;;;;;;21.53;15.50;;;;;;;;;;5010854;28;20221;-88
2021/12/06 12:04:15;;;;;;;18.93;12.57;;;;;;;;;;4986605;28;20556;-88
2021/12/06 12:07:19;;;;;;;23.50;13.07;;;;;;;;;;4991084;28;20556;-88
2021/12/06 12:10:29;;;;;;;20.40;12.27;;;;;;;;;;5002304;28;20233;-88
2021/12/06 12:13:36;;;;;;;17.63;11.33;;;;;;;;;;5009646;28;20202;-87
2021/12/06 12:16:40;;;;;;;19.90;12.70;;;;;;;;;;4986872;28;20191;-88
2021/12/06 12:19:47;;;;;;;18.70;12.70;;;;;;;;;;4988561;28;20242;-88
2021/12/06 12:22:54;;;;;;;21.60;13.73;;;;;;;;;;4978021;28;20543;-87
2021/12/06 12:26:13;;;;;;;20.20;11.90;;;;;;;;;;4983912;28;20189;-88
2021/12/06 12:29:24;;;;;;;19.27;12.83;;;;;;;;;;4998799;28;20598;-89
2021/12/06 12:32:30;;;;;;;18.40;11.87;;;;;;;;;;4979229;28;20198;-88
2021/12/06 12:35:37;;;;;;;18.47;10.67;;;;;;;;;;4975146;28;20210;-87
2021/12/06 12:38:47;;;;;;;15.73;11.27;;;;;;;;;;4998814;28;20197;-89
2021/12/06 12:42:04;;;;;;;18.07;10.57;;;;;;;;;;4987678;28;20193;-88
2021/12/06 12:45:14;;;;;;;16.87;10.60;;;;;;;;;;4987460;28;20190;-88
2021/12/06 12:48:23;;;;;;;14.47;10.13;;;;;;;;;;4979266;28;20186;-88
2021/12/06 12:51:35;;;;;;;15.47;10.47;;;;;;;;;;4971205;28;20222;-88
2021/12/06 12:54:44;;;;;;;16.40;9.87;;;;;;;;;;4978203;28;20188;-88
2021/12/06 12:57:49;;;;;;;15.63;10.63;;;;;;;;;;4987464;28;20189;-87
2021/12/06 13:01:03;;;;;;;14.80;9.97;;;;;;;;;;4998507;28;20216;-87
2021/12/06 13:04:07;;;;;;;15.10;10.07;;;;;;;;;;4986555;28;20193;-88
2021/12/06 13:07:15;;;;;;;17.53;9.97;;;;;;;;;;4979027;28;20186;-87
2021/12/06 13:10:22;;;;;;;16.83;9.83;;;;;;;;;;4956691;28;20711;-88
2021/12/06 13:13:41;;;;;;;15.20;9.63;;;;;;;;;;4974752;28;20654;-89
2021/12/06 13:17:00;;;;;;;17.03;9.93;;;;;;;;;;5007749;28;20610;-88
2021/12/06 13:20:26;;;;;;;16.13;9.27;;;;;;;;;;4986969;28;20213;-88
2021/12/06 13:23:31;;;;;;;17.27;10.77;;;;;;;;;;4985380;28;20193;-89
2021/12/06 13:26:37;;;;;;;14.70;9.30;;;;;;;;;;4978953;28;20755;-86
2021/12/06 13:29:48;;;;;;;14.80;9.67;;;;;;;;;;4956306;28;20242;-87
2021/12/06 13:32:58;;;;;;;15.60;9.63;;;;;;;;;;4967471;28;20198;-88
2021/12/06 13:36:02;;;;;;;14.80;9.40;;;;;;;;;;4996029;28;20197;-88
2021/12/06 13:39:38;;;;;;;15.20;9.67;;;;;;;;;;4996798;28;20201;-88
2021/12/06 13:42:43;;;;;;;16.27;9.93;;;;;;;;;;4989747;28;20197;-88
2021/12/06 13:45:51;;;;;;;16.33;10.13;;;;;;;;;;4990096;28;20189;-88
2021/12/06 13:49:11;;;;;;;21.10;11.03;;;;;;;;;;4988497;28;20200;-89
2021/12/06 13:52:15;;;;;;;16.13;9.73;;;;;;;;;;4990101;28;20713;-88
2021/12/06 13:55:25;;;;;;;19.23;14.10;;;;;;;;;;4990500;28;20211;-88
2021/12/06 13:58:30;;;;;;;16.77;11.80;;;;;;;;;;4990416;28;20190;-89
2021/12/06 14:01:35;;;;;;;15.47;10.07;;;;;;;;;;4983643;28;20216;-88
2021/12/06 14:04:41;;;;;;;14.77;9.17;;;;;;;;;;4990734;28;20182;-87
2021/12/06 14:07:45;;;;;;;14.57;8.50;;;;;;;;;;4994088;28;20197;-87
2021/12/06 14:10:55;;;;;;;14.93;11.60;;;;;;;;;;4993818;28;20233;-88
2021/12/06 14:14:00;;;;;;;14.57;9.93;;;;;;;;;;4993997;28;20633;-86
2021/12/06 14:17:12;;;;;;;15.37;9.50;;;;;;;;;;4985657;28;20547;-88
2021/12/06 14:20:17;;;;;;;13.37;8.17;;;;;;;;;;4974374;28;20214;-88
2021/12/06 14:23:24;;;;;;;13.43;9.13;;;;;;;;;;4974636;28;20186;-89
2021/12/06 14:26:32;;;;;;;12.60;7.67;;;;;;;;;;4974472;28;20178;-88
2021/12/06 14:29:36;;;;;;;14.50;9.17;;;;;;;;;;4974305;28;20559;-88
2021/12/06 14:32:55;;;;;;;16.07;8.63;;;;;;;;;;4974224;28;20186;-89
2021/12/06 14:36:00;;;;;;;15.27;9.37;;;;;;;;;;4974117;28;20191;-88
2021/12/06 14:39:12;;;;;;;13.77;9.07;;;;;;;;;;4974464;28;20190;-89
2021/12/06 14:42:18;;;;;;;14.30;9.27;;;;;;;;;;4974162;28;20666;-88
2021/12/06 14:45:24;;;;;;;13.50;8.83;;;;;;;;;;4974705;28;20519;-89
2021/12/06 14:48:30;;;;;;;16.03;11.47;;;;;;;;;;4974437;28;20178;-88
2021/12/06 14:51:37;;;;;;;15.93;9.37;;;;;;;;;;4973837;28;20229;-88
2021/12/06 14:55:48;;;;;;;14.43;9.30;;;;;;;;;;4974011;28;20186;-89
2021/12/06 14:58:55;;;;;;;12.43;8.30;;;;;;;;;;4983343;28;20202;-89
2021/12/06 15:02:00;;;;;;;15.23;9.17;;;;;;;;;;4974114;28;20175;-88
2021/12/06 15:05:05;;;;;;;14.80;9.47;;;;;;;;;;4973762;28;20639;-88
2021/12/06 15:08:12;;;;;;;16.57;9.43;;;;;;;;;;4986873;28;20166;-86
2021/12/06 15:11:21;;;;;;;14.97;10.23;;;;;;;;;;5006660;28;20222;-88
2021/12/06 15:14:25;;;;;;;14.00;9.83;;;;;;;;;;4993004;28;20546;-88
2021/12/06 15:17:29;;;;;;;13.40;9.07;;;;;;;;;;4988579;28;20186;-89
2021/12/06 15:20:36;;;;;;;16.67;9.63;;;;;;;;;;4984754;28;20967;-88
2021/12/06 15:23:53;;;;;;;18.57;11.13;;;;;;;;;;4973596;28;20541;-88
2021/12/06 15:27:01;;;;;;;15.00;10.27;;;;;;;;;;4984418;28;20562;-89
2021/12/06 15:30:10;;;;;;;20.40;9.43;;;;;;;;;;4983941;28;20660;-88
2021/12/06 15:33:17;;;;;;;16.40;9.93;;;;;;;;;;4978050;28;20550;-89
2021/12/06 15:36:22;;;;;;;15.27;10.73;;;;;;;;;;4987266;28;20596;-88
2021/12/06 15:39:28;;;;;;;17.47;10.47;;;;;;;;;;4992502;28;20541;-88
2021/12/06 15:42:32;;;;;;;22.87;12.93;;;;;;;;;;4991231;28;20545;-88
2021/12/06 15:45:37;;;;;;;21.80;13.87;;;;;;;;;;4973504;28;20606;-89
2021/12/06 15:48:43;;;;;;;20.73;13.00;;;;;;;;;;4961763;28;20574;-88
2021/12/06 15:51:57;;;;;;;30.03;17.83;;;;;;;;;;4973959;28;20656;-88
2021/12/06 15:55:10;;;;;;;27.43;16.27;;;;;;;;;;4964296;28;20589;-86
2021/12/06 15:58:19;;;;;;;20.77;13.37;;;;;;;;;;5003753;28;20561;-89
2021/12/06 16:01:24;;;;;;;24.57;13.77;;;;;;;;;;5003485;28;20628;-88
2021/12/06 16:04:37;;;;;;;18.53;12.07;;;;;;;;;;4979648;28;20597;-89
2021/12/06 16:07:53;;;;;;;19.80;13.23;;;;;;;;;;4982664;28;20609;-87
2021/12/06 16:10:59;;;;;;;19.13;11.67;;;;;;;;;;4981020;28;20640;-89
2021/12/06 16:14:04;;;;;;;19.97;11.40;;;;;;;;;;4984580;28;21179;-89
2021/12/06 16:17:10;;;;;;;16.47;10.63;;;;;;;;;;4973207;28;20631;-88
2021/12/06 16:20:15;;;;;;;18.50;10.20;;;;;;;;;;4991136;28;21176;-88
2021/12/06 16:23:26;;;;;;;16.70;11.03;;;;;;;;;;4982233;28;20597;-88
2021/12/06 16:26:36;;;;;;;19.77;12.17;;;;;;;;;;4995780;28;20601;-88
2021/12/06 16:29:46;;;;;;;26.80;18.57;;;;;;;;;;5026559;23;20647;-83
2021/12/06 16:32:50;;;;;;;23.60;14.20;;;;;;;;;;4990869;28;21213;-82
2021/12/06 16:35:55;;;;;;;17.77;11.77;;;;;;;;;;4991049;28;20189;-81
2021/12/06 16:39:08;;;;;;;21.67;12.37;;;;;;;;;;4992000;28;20540;-82
2021/12/06 16:42:32;;;;;;;25.97;17.00;;;;;;;;;;4982839;28;20550;-82
2021/12/06 16:45:37;;;;;;;17.63;11.33;;;;;;;;;;4972319;28;20602;-82
2021/12/06 16:48:59;;;;;;;27.30;20.53;;;;;;;;;;4971769;28;20545;-82
2021/12/06 16:52:31;;;;;;;18.37;12.83;;;;;;;;;;4982567;28;20605;-82
2021/12/06 16:55:43;;;;;;;22.60;14.97;;;;;;;;;;4980229;28;20589;-82
2021/12/06 16:58:50;;;;;;;28.40;21.23;;;;;;;;;;4982594;28;20948;-82
2021/12/06 17:02:04;;;;;;;21.20;14.93;;;;;;;;;;4971841;28;21207;-82
2021/12/06 17:05:09;;;;;;;20.60;13.30;;;;;;;;;;4971346;28;20593;-82
2021/12/06 17:08:23;;;;;;;20.23;12.63;;;;;;;;;;4971244;28;20593;-84
2021/12/06 17:11:31;;;;;;;20.37;12.70;;;;;;;;;;4970864;28;21025;-82
2021/12/06 17:14:35;;;;;;;17.57;11.40;;;;;;;;;;4981725;28;21153;-82
2021/12/06 17:17:45;;;;;;;16.60;10.63;;;;;;;;;;4993697;28;20577;-83
2021/12/06 17:20:52;;;;;;;19.43;11.77;;;;;;;;;;4971053;28;20617;-83
2021/12/06 17:23:56;;;;;;;18.37;10.67;;;;;;;;;;4979751;28;20601;-83
2021/12/06 17:27:01;;;;;;;17.07;10.83;;;;;;;;;;4963178;28;20563;-83
2021/12/06 17:30:07;;;;;;;21.57;13.30;;;;;;;;;;4952458;28;20645;-83
2021/12/06 17:33:12;;;;;;;23.20;12.73;;;;;;;;;;4956698;28;20587;-82
2021/12/06 17:36:18;;;;;;;18.13;12.13;;;;;;;;;;4977416;28;20602;-82
2021/12/06 17:39:25;;;;;;;21.33;13.43;;;;;;;;;;4970236;28;20554;-83
2021/12/06 17:42:29;;;;;;;23.90;15.07;;;;;;;;;;4967035;28;20593;-83
2021/12/06 17:45:34;;;;;;;20.03;13.03;;;;;;;;;;4965488;28;20601;-84
2021/12/06 17:48:38;;;;;;;24.13;14.30;;;;;;;;;;4965789;28;20601;-84
2021/12/06 17:51:44;;;;;;;20.43;12.37;;;;;;;;;;4965517;28;20726;-83
2021/12/06 17:54:49;;;;;;;22.17;14.20;;;;;;;;;;4977898;28;21121;-83
2021/12/06 17:58:01;;;;;;;24.30;13.67;;;;;;;;;;4966404;28;20597;-84
2021/12/06 18:01:09;;;;;;;24.57;14.50;;;;;;;;;;4988022;28;20645;-83
2021/12/06 18:04:17;;;;;;;20.97;13.20;;;;;;;;;;4968641;28;20566;-83
2021/12/06 18:07:21;;;;;;;32.27;18.30;;;;;;;;;;4968561;28;20601;-83
2021/12/06 18:10:26;;;;;;;20.17;13.10;;;;;;;;;;4962296;28;20637;-83
2021/12/06 18:13:32;;;;;;;20.53;13.23;;;;;;;;;;4969182;28;21227;-83
2021/12/06 18:16:37;;;;;;;20.77;12.97;;;;;;;;;;4970995;28;21134;-84
2021/12/06 18:19:42;;;;;;;19.93;12.80;;;;;;;;;;4982091;28;21140;-83
2021/12/06 18:22:46;;;;;;;21.00;13.07;;;;;;;;;;4970284;28;20996;-82
2021/12/06 18:25:50;;;;;;;19.03;12.37;;;;;;;;;;4971038;28;20554;-82
2021/12/06 18:28:55;;;;;;;20.27;12.80;;;;;;;;;;4971234;28;20565;-82